Terminal Aerodrome Forecast
Issued by NWS Portland, OR

Home | Current Version | Previous Version | Text Only | Print | Product List | Glossary On
Versions: 1 2 3 4 5 6 7 8 9 10 11 12 13 14 15 16 17 18 19 20 21 22 23 24 25 26 27 28 29 30 31
000
FTUS46 KPQR 122344
TAFEUG
TAF
KEUG 122344Z 1300/1324 17008KT P6SM -SHRA FEW020 SCT050 OVC070
     FM130600 18005KT P6SM BKN040
     FM131500 17005KT 5SM BR OVC015
     FM132000 18010KT P6SM OVC120=

USA.gov is the U.S. government's official web portal to all federal, state and local government web resources and services.